Time;durP1;ratioP1;P1;durP2;ratioP2;P2;SDS_P1;SDS_P2;PMS_P1;PMS_P2;Temp;Humidity;BMP_temperature;BMP_pressure;BME280_temperature;BME280_humidity;BME280_pressure;Samples;Min_cycle;Max_cycle;Signal;HPM_P1;HPM_P2
2022/03/02 00:02:22;;;;;;;18.42;10.00;;;;;;;0.64;75.07;101917.41;1647006;86;26130;-58
2022/03/02 00:04:49;;;;;;;21.97;10.78;;;;;;;0.65;75.01;101916.50;1647516;87;25703;-57
2022/03/02 00:07:16;;;;;;;17.70;10.18;;;;;;;0.67;74.76;101922.64;1647486;87;27489;-57
2022/03/02 00:09:43;;;;;;;17.62;10.32;;;;;;;0.70;74.83;101909.75;1647571;87;25691;-57
2022/03/02 00:12:10;;;;;;;17.80;10.65;;;;;;;0.72;74.83;101908.79;1661502;85;25873;-57
2022/03/02 00:14:37;;;;;;;20.15;12.18;;;;;;;0.73;74.90;101914.97;1676784;84;26071;-57
2022/03/02 00:17:05;;;;;;;19.75;11.10;;;;;;;0.71;74.90;101903.55;1701506;82;25822;-57
2022/03/02 00:19:33;;;;;;;18.57;10.20;;;;;;;0.68;74.82;101901.86;1732422;82;27481;-57
2022/03/02 00:22:01;;;;;;;17.27;10.72;;;;;;;0.68;74.96;101901.86;1732624;82;26081;-56
2022/03/02 00:24:27;;;;;;;17.05;10.72;;;;;;;0.69;75.04;101899.62;1732521;82;25644;-56
2022/03/02 00:26:54;;;;;;;19.60;11.15;;;;;;;0.71;75.06;101895.60;1732382;82;26803;-57
2022/03/02 00:29:21;;;;;;;20.00;10.48;;;;;;;0.69;74.80;101904.04;1732415;82;25790;-56
2022/03/02 00:31:48;;;;;;;17.15;9.13;;;;;;;0.70;74.95;101899.16;1732281;82;27481;-57
2022/03/02 00:34:14;;;;;;;18.35;9.73;;;;;;;0.70;75.06;101888.13;1732634;82;26038;-57
2022/03/02 00:36:42;;;;;;;17.17;9.80;;;;;;;0.67;75.30;101882.91;1723697;82;25746;-58
2022/03/02 00:39:10;;;;;;;20.48;11.10;;;;;;;0.66;75.03;101877.20;1705279;82;26153;-57
2022/03/02 00:41:37;;;;;;;17.48;10.08;;;;;;;0.66;75.21;101872.38;1706165;83;25829;-57
2022/03/02 00:44:04;;;;;;;17.85;10.00;;;;;;;0.69;75.53;101873.58;1705617;83;27509;-57
2022/03/02 00:46:33;;;;;;;17.90;10.55;;;;;;;0.65;75.28;101871.48;1681795;83;25824;-57
2022/03/02 00:49:02;;;;;;;19.55;10.45;;;;;;;0.66;75.63;101871.05;1676703;85;25728;-57
2022/03/02 00:51:30;;;;;;;19.70;10.72;;;;;;;0.66;75.57;101866.60;1688788;82;26076;-58
2022/03/02 00:53:58;;;;;;;16.52;9.63;;;;;;;0.66;75.73;101863.09;1705521;83;25786;-57
2022/03/02 00:56:25;;;;;;;23.12;11.83;;;;;;;0.66;75.78;101857.80;1705746;83;27451;-57
2022/03/02 00:58:52;;;;;;;19.37;10.05;;;;;;;0.65;75.83;101856.06;1705842;83;25849;-57
2022/03/02 01:01:20;;;;;;;16.45;10.20;;;;;;;0.64;75.93;101851.20;1706162;83;25501;-57
2022/03/02 01:03:47;;;;;;;18.92;10.82;;;;;;;0.62;76.14;101848.61;1705201;82;26801;-60
2022/03/02 01:06:13;;;;;;;17.82;10.80;;;;;;;0.62;76.45;101843.31;1705507;83;25752;-56
2022/03/02 01:08:40;;;;;;;18.98;10.72;;;;;;;0.60;76.65;101846.46;1705719;83;27491;-57
2022/03/02 01:11:07;;;;;;;16.62;9.93;;;;;;;0.58;76.45;101842.12;1705057;84;25777;-57
2022/03/02 01:13:34;;;;;;;19.07;10.50;;;;;;;0.59;76.68;101841.22;1704769;82;25548;-57
2022/03/02 01:16:02;;;;;;;18.02;10.18;;;;;;;0.61;76.85;101832.78;1704843;84;26095;-57
2022/03/02 01:18:29;;;;;;;23.40;11.33;;;;;;;0.60;76.93;101838.52;1705244;83;25811;-57
2022/03/02 01:20:56;;;;;;;21.45;10.70;;;;;;;0.58;77.64;101836.36;1704764;84;27557;-56
2022/03/02 01:23:23;;;;;;;23.45;11.05;;;;;;;0.53;77.25;101836.97;1704445;84;25936;-56
2022/03/02 01:25:50;;;;;;;15.58;10.13;;;;;;;0.50;77.45;101829.11;1704737;84;25667;-57
2022/03/02 01:28:18;;;;;;;20.10;10.32;;;;;;;0.50;77.56;101828.25;1704673;84;26120;-56
2022/03/02 01:31:03;;;;;;;18.52;10.10;;;;;;;0.50;77.84;101828.25;1704295;84;25809;-56
2022/03/02 01:33:30;;;;;;;21.25;11.48;;;;;;;0.46;77.90;101823.50;1704762;82;27511;-56
2022/03/02 01:35:57;;;;;;;20.35;10.63;;;;;;;0.46;77.69;101820.86;1704518;84;25800;-55
2022/03/02 01:38:24;;;;;;;21.73;9.98;;;;;;;0.48;77.98;101820.80;1703261;84;25499;-57
2022/03/02 01:40:51;;;;;;;19.67;11.12;;;;;;;0.50;77.89;101816.34;1703474;84;26183;-57
2022/03/02 01:43:18;;;;;;;22.62;11.40;;;;;;;0.50;77.96;101807.92;1692128;84;27268;-56
2022/03/02 01:45:46;;;;;;;24.50;11.18;;;;;;;0.47;78.20;101805.39;1676566;85;28644;-56
2022/03/02 01:48:14;;;;;;;20.57;11.43;;;;;;;0.47;78.37;101802.73;1675625;85;25536;-57
2022/03/02 01:50:40;;;;;;;22.87;12.13;;;;;;;0.46;78.32;101810.27;1675816;85;25706;-59
2022/03/02 01:53:07;;;;;;;22.58;11.63;;;;;;;0.44;78.46;101810.77;1676316;85;26164;-57
2022/03/02 01:55:34;;;;;;;21.95;11.78;;;;;;;0.42;78.52;101805.52;1676405;85;25761;-56
2022/03/02 01:58:01;;;;;;;30.95;11.00;;;;;;;0.43;78.51;101806.37;1676479;85;27501;-57
2022/03/02 02:00:28;;;;;;;23.85;10.58;;;;;;;0.42;78.64;101800.67;1676314;85;25725;-57
2022/03/02 02:02:56;;;;;;;27.75;11.65;;;;;;;0.43;78.79;101794.46;1676382;85;25741;-57
2022/03/02 02:05:24;;;;;;;24.65;13.38;;;;;;;0.42;78.52;101799.34;1676234;85;26092;-57
2022/03/02 02:07:51;;;;;;;22.85;11.90;;;;;;;0.42;78.75;101794.05;1676032;85;25874;-57
2022/03/02 02:10:18;;;;;;;19.87;10.98;;;;;;;0.41;78.70;101789.23;1676184;85;27491;-57
2022/03/02 02:12:46;;;;;;;22.15;11.85;;;;;;;0.42;78.63;101791.40;1658584;84;26314;-57
2022/03/02 02:15:13;;;;;;;19.32;10.68;;;;;;;0.44;79.03;101782.97;1679030;84;25790;-57
2022/03/02 02:17:41;;;;;;;20.35;10.48;;;;;;;0.45;78.67;101791.33;1675188;82;26185;-58
2022/03/02 02:20:10;;;;;;;22.37;11.65;;;;;;;0.48;78.74;101786.38;1674581;84;25783;-58
2022/03/02 02:22:45;;;;;;;24.67;12.03;;;;;;;0.51;78.82;101777.89;1674750;85;27481;-57
2022/03/02 02:25:15;;;;;;;23.12;12.63;;;;;;;0.50;78.45;101781.45;1674057;85;25789;-58
2022/03/02 02:27:46;;;;;;;24.07;11.80;;;;;;;0.53;78.76;101781.36;1674318;85;25837;-59
2022/03/02 02:30:16;;;;;;;22.17;11.57;;;;;;;0.51;78.59;101777.03;1674306;84;26110;-58
2022/03/02 02:32:43;;;;;;;22.27;11.38;;;;;;;0.52;78.76;101774.33;1674371;85;25696;-58
2022/03/02 02:35:12;;;;;;;21.75;10.38;;;;;;;0.49;78.58;101773.56;1674562;85;27569;-58
2022/03/02 02:37:40;;;;;;;23.70;12.07;;;;;;;0.50;78.83;101767.36;1716160;82;25902;-58
2022/03/02 02:40:15;;;;;;;26.40;12.13;;;;;;;0.49;78.83;101762.97;1730022;82;25751;-57
2022/03/02 02:42:45;;;;;;;20.68;11.45;;;;;;;0.46;78.68;101763.47;1725606;82;26102;-57
2022/03/02 02:45:15;;;;;;;23.70;12.07;;;;;;;0.46;78.72;101763.47;1695374;83;25761;-57
2022/03/02 02:47:44;;;;;;;23.32;13.03;;;;;;;0.46;78.56;101756.00;1643828;87;27513;-57
2022/03/02 02:50:22;;;;;;;23.90;11.45;;;;;;;0.46;78.54;101756.00;1676690;84;25817;-57
2022/03/02 02:52:51;;;;;;;26.37;11.40;;;;;;;0.49;78.81;101759.00;1674604;84;26419;-57
2022/03/02 02:55:20;;;;;;;22.20;11.50;;;;;;;0.49;78.74;101754.59;1674784;84;26082;-57
2022/03/02 02:57:48;;;;;;;21.15;10.95;;;;;;;0.50;78.93;101752.80;1644903;86;25809;-57
2022/03/02 03:00:18;;;;;;;20.60;11.25;;;;;;;0.44;79.06;101743.25;1678097;84;28403;-57
2022/03/02 03:02:49;;;;;;;19.60;10.40;;;;;;;0.41;79.07;101737.60;1643838;86;25840;-56
2022/03/02 03:05:20;;;;;;;20.60;11.93;;;;;;;0.39;79.18;101738.09;1674543;85;25841;-58
2022/03/02 03:07:48;;;;;;;21.62;11.40;;;;;;;0.36;79.22;101739.97;1676072;84;26073;-57
2022/03/02 03:10:16;;;;;;;21.48;11.00;;;;;;;0.34;79.33;101744.00;1675338;84;25829;-57
2022/03/02 03:12:45;;;;;;;18.95;10.90;;;;;;;0.35;79.39;101731.63;1674749;85;28447;-58
2022/03/02 03:15:14;;;;;;;18.60;10.20;;;;;;;0.33;79.19;101734.33;1646024;85;25539;-57
2022/03/02 03:17:42;;;;;;;29.52;14.73;;;;;;;0.34;79.26;101741.80;1676843;85;25593;-58
2022/03/02 03:20:14;;;;;;;18.40;10.38;;;;;;;0.33;79.56;101731.67;1677950;84;26121;-58
2022/03/02 03:22:42;;;;;;;23.67;10.82;;;;;;;0.33;79.82;101738.30;1677052;85;25852;-57
2022/03/02 03:25:10;;;;;;;21.42;10.65;;;;;;;0.31;79.69;101728.20;1646330;86;28365;-57
2022/03/02 03:27:38;;;;;;;22.67;10.40;;;;;;;0.33;79.91;101726.83;1676985;84;25769;-57
2022/03/02 03:30:08;;;;;;;19.92;11.38;;;;;;;0.30;80.20;101733.97;1676668;84;25800;-57
2022/03/02 03:32:35;;;;;;;21.37;11.08;;;;;;;0.31;80.21;101729.53;1676841;85;26089;-57
2022/03/02 03:35:05;;;;;;;18.98;11.35;;;;;;;0.26;79.92;101726.16;1676717;85;25902;-57
2022/03/02 03:37:31;;;;;;;22.62;10.88;;;;;;;0.28;80.11;101718.58;1676975;84;27488;-57
2022/03/02 03:39:58;;;;;;;23.67;11.95;;;;;;;0.28;80.16;101714.61;1676364;85;25839;-57
2022/03/02 03:42:26;;;;;;;22.17;10.78;;;;;;;0.25;79.94;101721.31;1646187;85;25812;-57
2022/03/02 03:44:53;;;;;;;20.02;10.68;;;;;;;0.26;80.19;101708.96;1677242;84;26091;-57
2022/03/02 03:47:20;;;;;;;19.48;10.63;;;;;;;0.28;80.75;101711.97;1646435;86;25767;-57
2022/03/02 03:49:48;;;;;;;19.15;10.68;;;;;;;0.27;80.60;101704.94;1676805;85;27556;-57
2022/03/02 03:52:14;;;;;;;23.42;10.43;;;;;;;0.27;80.78;101703.61;1676899;84;25832;-58
2022/03/02 03:54:41;;;;;;;22.45;11.45;;;;;;;0.25;80.52;101701.46;1677478;84;25785;-57
2022/03/02 03:57:08;;;;;;;20.08;11.05;;;;;;;0.23;80.66;101695.81;1676347;85;26127;-57
2022/03/02 03:59:35;;;;;;;28.15;11.55;;;;;;;0.22;80.41;101693.64;1677208;84;25804;-57
2022/03/02 04:02:02;;;;;;;21.77;11.20;;;;;;;0.23;80.46;101695.81;1677552;84;27462;-57
2022/03/02 04:04:29;;;;;;;21.65;12.00;;;;;;;0.24;80.60;101687.81;1676376;85;25833;-58
2022/03/02 04:06:56;;;;;;;18.23;10.93;;;;;;;0.27;80.94;101690.38;1676674;85;25765;-58
2022/03/02 04:09:23;;;;;;;18.60;10.10;;;;;;;0.26;80.71;101680.70;1676090;85;26118;-58
2022/03/02 04:11:50;;;;;;;22.67;11.70;;;;;;;0.30;81.05;101685.44;1676875;85;25746;-57
2022/03/02 04:14:18;;;;;;;25.05;11.53;;;;;;;0.27;80.77;101691.70;1676654;84;27435;-58
2022/03/02 04:16:45;;;;;;;21.17;10.72;;;;;;;0.27;80.74;101689.05;1645813;87;25792;-58
2022/03/02 04:19:12;;;;;;;20.27;12.03;;;;;;;0.28;80.90;101684.17;1676745;85;25507;-58
2022/03/02 04:21:39;;;;;;;22.10;12.03;;;;;;;0.26;80.93;101682.02;1646004;86;28341;-58
2022/03/02 04:24:06;;;;;;;26.12;10.90;;;;;;;0.27;80.42;101680.27;1646087;85;25522;-57
2022/03/02 04:26:33;;;;;;;23.75;11.78;;;;;;;0.30;80.45;101682.80;1676453;84;27488;-58
2022/03/02 04:29:00;;;;;;;22.87;12.00;;;;;;;0.29;80.39;101675.33;1646022;87;25865;-58
2022/03/02 04:31:27;;;;;;;24.60;11.97;;;;;;;0.27;80.77;101675.82;1676465;85;25696;-58
2022/03/02 04:33:55;;;;;;;20.10;11.95;;;;;;;0.26;80.63;101671.44;1646178;85;26078;-57
2022/03/02 04:36:21;;;;;;;26.80;11.35;;;;;;;0.26;80.89;101672.77;1682222;84;25546;-58
2022/03/02 04:38:48;;;;;;;25.92;12.58;;;;;;;0.26;80.82;101673.23;1703428;84;27502;-58
2022/03/02 04:41:15;;;;;;;28.95;14.65;;;;;;;0.26;80.95;101667.47;1676135;84;25831;-58
2022/03/02 04:43:59;;;;;;;27.37;13.28;;;;;;;0.27;80.79;101674.50;1707220;82;25723;-59
2022/03/02 04:46:26;;;;;;;25.50;12.68;;;;;;;0.30;80.74;101674.41;1704837;82;25980;-59
2022/03/02 04:48:54;;;;;;;24.18;12.50;;;;;;;0.29;80.81;101675.33;1705017;83;25734;-58
2022/03/02 04:51:21;;;;;;;20.72;11.05;;;;;;;0.31;80.53;101667.33;1704868;84;27458;-59
2022/03/02 04:53:50;;;;;;;24.18;12.47;;;;;;;0.31;80.95;101670.83;1704662;84;25642;-58
2022/03/02 04:56:18;;;;;;;27.45;12.50;;;;;;;0.30;80.82;101673.53;1704801;84;25785;-59
2022/03/02 04:58:45;;;;;;;22.87;12.23;;;;;;;0.31;80.94;101668.65;1702305;82;25735;-59
2022/03/02 05:01:12;;;;;;;24.27;12.55;;;;;;;0.34;81.22;101671.66;1734606;82;25483;-57
2022/03/02 05:03:39;;;;;;;23.83;12.10;;;;;;;0.35;81.01;101672.06;1720099;82;27507;-58
2022/03/02 05:06:07;;;;;;;21.62;12.10;;;;;;;0.29;80.94;101668.70;1714713;82;26277;-58
2022/03/02 05:08:33;;;;;;;26.75;12.47;;;;;;;0.31;81.13;101665.53;1721923;82;25764;-58
2022/03/02 05:11:00;;;;;;;23.70;11.10;;;;;;;0.31;80.92;101670.83;1718150;82;26467;-58
2022/03/02 05:13:27;;;;;;;26.87;11.63;;;;;;;0.34;81.18;101673.86;1722002;81;25864;-59
2022/03/02 05:15:54;;;;;;;25.32;12.90;;;;;;;0.35;80.76;101673.39;1709147;82;27629;-58
2022/03/02 05:18:20;;;;;;;23.42;11.25;;;;;;;0.35;80.93;101666.77;1720040;81;25535;-58
2022/03/02 05:20:47;;;;;;;25.88;11.45;;;;;;;0.39;81.14;101667.95;1727716;82;25775;-58
2022/03/02 05:23:14;;;;;;;28.70;13.55;;;;;;;0.39;81.05;101670.59;1734840;81;26097;-58
2022/03/02 05:25:41;;;;;;;21.25;12.60;;;;;;;0.39;81.02;101663.13;1735023;81;26142;-58
2022/03/02 05:28:08;;;;;;;22.50;11.88;;;;;;;0.41;81.24;101668.77;1734937;81;27448;-58
2022/03/02 05:30:36;;;;;;;19.00;10.45;;;;;;;0.41;81.19;101670.09;1715076;81;26016;-59
2022/03/02 05:33:03;;;;;;;18.82;10.15;;;;;;;0.42;81.15;101661.25;1705231;83;25721;-58
2022/03/02 05:35:30;;;;;;;18.92;9.60;;;;;;;0.46;81.05;101659.36;1710151;82;26120;-58
2022/03/02 05:37:56;;;;;;;20.55;11.48;;;;;;;0.50;81.04;101661.45;1712535;82;25774;-56
2022/03/02 05:40:23;;;;;;;20.08;11.10;;;;;;;0.52;80.94;101657.83;1705240;83;27524;-57
2022/03/02 05:42:51;;;;;;;23.75;12.25;;;;;;;0.56;81.11;101654.63;1705247;83;25852;-57
2022/03/02 05:45:19;;;;;;;21.60;10.72;;;;;;;0.58;80.95;101656.77;1696335;82;25718;-57
2022/03/02 05:47:46;;;;;;;22.48;12.55;;;;;;;0.56;80.84;101658.16;1677401;84;26086;-58
2022/03/02 05:50:13;;;;;;;22.70;11.40;;;;;;;0.56;80.69;101658.16;1705769;82;25667;-57
2022/03/02 05:52:40;;;;;;;22.17;11.45;;;;;;;0.55;80.88;101656.42;1705477;83;27460;-58
2022/03/02 05:55:08;;;;;;;23.18;12.37;;;;;;;0.57;80.87;101659.89;1705731;82;26523;-58
2022/03/02 05:57:36;;;;;;;22.85;11.05;;;;;;;0.56;80.93;101648.89;1715515;82;25830;-58
2022/03/02 06:00:05;;;;;;;22.10;11.28;;;;;;;0.59;80.68;101652.73;1720383;82;26803;-58
2022/03/02 06:02:32;;;;;;;24.18;11.55;;;;;;;0.62;80.76;101653.13;1721221;82;25797;-57
2022/03/02 06:04:59;;;;;;;19.70;10.82;;;;;;;0.66;80.62;101651.23;1719781;82;27469;-57
2022/03/02 06:07:27;;;;;;;20.27;11.57;;;;;;;0.66;80.45;101644.14;1706322;81;25805;-58
2022/03/02 06:09:54;;;;;;;19.67;11.08;;;;;;;0.71;80.47;101647.52;1706401;83;25488;-57
2022/03/02 06:12:23;;;;;;;22.32;11.45;;;;;;;0.73;80.46;101646.98;1705366;83;26095;-57
2022/03/02 06:14:51;;;;;;;26.45;10.72;;;;;;;0.76;80.37;101650.87;1704180;83;25765;-57
2022/03/02 06:17:19;;;;;;;22.67;12.28;;;;;;;0.78;80.30;101650.81;1705957;83;27491;-57
2022/03/02 06:19:47;;;;;;;20.40;10.48;;;;;;;0.81;80.15;101649.39;1689246;83;25812;-58
2022/03/02 06:22:17;;;;;;;27.05;11.38;;;;;;;0.88;80.14;101642.11;1705607;83;25761;-57
2022/03/02 06:24:46;;;;;;;17.80;10.48;;;;;;;0.89;79.81;101648.67;1705191;83;26825;-57
2022/03/02 06:27:12;;;;;;;26.60;12.53;;;;;;;0.93;80.07;101648.98;1705195;82;25489;-58
2022/03/02 06:29:39;;;;;;;22.35;11.35;;;;;;;1.03;79.78;101646.02;1705822;83;28232;-57
2022/03/02 06:32:08;;;;;;;16.80;10.00;;;;;;;1.07;79.80;101644.98;1705839;83;25770;-57
2022/03/02 06:34:34;;;;;;;20.82;11.12;;;;;;;1.09;79.76;101647.98;1705573;82;25833;-57
2022/03/02 06:37:02;;;;;;;20.55;10.35;;;;;;;1.07;79.69;101643.22;1718863;82;26776;-57
2022/03/02 06:39:29;;;;;;;18.57;10.40;;;;;;;1.05;79.73;101636.21;1732564;82;25787;-57
2022/03/02 06:42:19;;;;;;;23.90;11.20;;;;;;;1.07;79.95;101640.56;1732346;82;29577;-57
2022/03/02 06:45:00;;;;;;;22.85;12.07;;;;;;;1.11;79.98;101637.78;1678693;82;25751;-56
2022/03/02 06:47:31;;;;;;;22.93;10.80;;;;;;;1.14;79.85;101637.69;1676160;84;25715;-57
2022/03/02 06:50:12;;;;;;;20.00;11.73;;;;;;;1.10;80.00;101628.98;1676744;85;26442;-56
2022/03/02 06:52:44;;;;;;;59.03;34.70;;;;;;;1.07;79.87;101636.59;1676555;84;25765;-56
2022/03/02 06:55:15;;;;;;;22.32;11.33;;;;;;;1.03;79.93;101630.97;1676672;83;28209;-57
2022/03/02 06:57:47;;;;;;;20.97;11.35;;;;;;;1.00;80.23;101632.40;1676573;85;25797;-57
2022/03/02 07:00:16;;;;;;;24.87;12.05;;;;;;;0.93;80.18;101634.86;1664225;84;25800;-57
2022/03/02 07:02:51;;;;;;;27.17;10.65;;;;;;;0.89;80.38;101639.40;1676945;85;26045;-57
2022/03/02 07:05:19;;;;;;;23.52;11.90;;;;;;;0.86;80.48;101632.02;1676308;85;25750;-57
2022/03/02 07:07:48;;;;;;;26.95;12.43;;;;;;;0.81;80.50;101620.73;1676957;85;28181;-57
2022/03/02 07:10:15;;;;;;;19.02;10.75;;;;;;;0.81;80.73;101628.67;1676297;85;25881;-57
2022/03/02 07:12:43;;;;;;;19.52;11.18;;;;;;;0.84;80.82;101629.87;1677169;85;25559;-57
2022/03/02 07:15:12;;;;;;;26.17;10.53;;;;;;;0.85;80.74;101620.53;1684420;84;25741;-57
2022/03/02 07:17:40;;;;;;;31.00;13.43;;;;;;;0.84;80.81;101621.48;1705460;83;25831;-57
2022/03/02 07:20:11;;;;;;;20.27;11.25;;;;;;;0.88;80.82;101611.64;1705641;83;28185;-57
2022/03/02 07:22:46;;;;;;;21.55;11.48;;;;;;;0.88;80.58;101612.50;1705892;83;25709;-57
2022/03/02 07:25:23;;;;;;;22.25;11.75;;;;;;;0.88;80.92;101611.64;1704945;83;25448;-57
2022/03/02 07:27:50;;;;;;;22.05;11.88;;;;;;;0.88;81.05;101608.52;1706250;82;26103;-57
2022/03/02 07:30:18;;;;;;;25.90;12.50;;;;;;;0.90;81.09;101607.13;1722692;81;26426;-56
2022/03/02 07:32:47;;;;;;;25.15;13.50;;;;;;;0.91;81.01;101608.87;1735326;81;27523;-57
2022/03/02 07:35:16;;;;;;;26.42;13.80;;;;;;;0.91;81.08;101607.10;1735077;82;25718;-57
2022/03/02 07:37:45;;;;;;;27.93;12.78;;;;;;;0.91;81.06;101604.89;1716041;81;25766;-57
2022/03/02 07:40:14;;;;;;;27.50;12.78;;;;;;;0.90;81.21;101602.72;1721708;81;26142;-57
2022/03/02 07:42:41;;;;;;;22.77;12.73;;;;;;;0.87;81.47;101600.16;1720042;81;25641;-57
2022/03/02 07:45:09;;;;;;;29.80;13.60;;;;;;;0.91;81.42;101600.48;1719522;81;27525;-56
2022/03/02 07:47:36;;;;;;;29.15;13.95;;;;;;;0.91;81.35;101599.59;1716126;81;25765;-57
2022/03/02 07:50:05;;;;;;;25.10;12.90;;;;;;;0.92;81.31;101600.00;1719517;82;25782;-57
2022/03/02 07:52:36;;;;;;;29.40;13.70;;;;;;;0.91;81.17;101596.50;1718150;82;26044;-58
2022/03/02 07:55:09;;;;;;;24.85;12.93;;;;;;;0.93;81.58;101599.09;1720073;81;25793;-57
2022/03/02 07:57:41;;;;;;;23.52;12.20;;;;;;;0.97;81.43;101592.78;1721559;81;28399;-57
2022/03/02 08:00:11;;;;;;;24.70;12.23;;;;;;;1.01;81.44;101591.73;1713228;82;25844;-57
2022/03/02 08:02:40;;;;;;;21.65;12.70;;;;;;;1.09;81.51;101592.80;1705980;83;25753;-58
2022/03/02 08:05:09;;;;;;;25.27;12.93;;;;;;;1.15;81.41;101587.74;1706295;83;26098;-58
2022/03/02 08:07:37;;;;;;;25.23;12.33;;;;;;;1.17;81.26;101585.44;1712614;82;25775;-57
2022/03/02 08:10:06;;;;;;;21.17;12.40;;;;;;;1.18;81.11;101591.14;1712989;81;27512;-57
2022/03/02 08:12:33;;;;;;;22.65;11.80;;;;;;;1.18;81.12;101587.17;1686586;83;25757;-57
2022/03/02 08:15:00;;;;;;;24.02;13.05;;;;;;;1.19;81.15;101588.91;1674397;83;26355;-57
2022/03/02 08:17:27;;;;;;;20.10;11.60;;;;;;;1.22;81.10;101580.81;1676165;85;26110;-57
2022/03/02 08:19:54;;;;;;;26.17;12.85;;;;;;;1.23;81.04;101585.20;1676369;85;25770;-58
2022/03/02 08:22:24;;;;;;;27.60;11.08;;;;;;;1.28;81.25;101581.53;1676242;85;27579;-57
2022/03/02 08:25:07;;;;;;;22.25;11.95;;;;;;;1.32;80.98;101577.39;1676300;85;25938;-57
2022/03/02 08:27:41;;;;;;;23.75;11.50;;;;;;;1.38;81.14;101569.20;1710499;82;26651;-57
2022/03/02 08:30:11;;;;;;;27.67;11.95;;;;;;;1.48;80.98;101568.85;1711286;82;26118;-57
2022/03/02 08:32:44;;;;;;;21.07;10.45;;;;;;;1.54;80.94;101570.82;1719960;82;25513;-58
2022/03/02 08:35:13;;;;;;;24.47;12.85;;;;;;;1.58;80.75;101562.72;1716478;82;27565;-57
2022/03/02 08:37:41;;;;;;;30.27;11.97;;;;;;;1.62;80.80;101559.90;1715325;82;26390;-58
2022/03/02 08:40:11;;;;;;;25.68;12.07;;;;;;;1.65;80.92;101560.27;1714947;82;25886;-57
2022/03/02 08:42:38;;;;;;;21.73;11.05;;;;;;;1.68;80.92;101561.45;1721116;82;26099;-58
2022/03/02 08:45:07;;;;;;;23.22;12.28;;;;;;;1.75;80.91;101561.61;1715150;82;25845;-58
2022/03/02 08:47:35;;;;;;;20.52;11.35;;;;;;;1.81;80.52;101557.86;1727579;82;27668;-58
2022/03/02 08:50:04;;;;;;;21.27;11.95;;;;;;;1.86;80.25;101559.41;1734205;82;25684;-57
2022/03/02 08:52:33;;;;;;;22.13;10.30;;;;;;;1.92;80.03;101553.48;1734257;81;25752;-57
2022/03/02 08:58:57;;;;;;;22.55;11.03;;;;;;;1.98;79.68;101555.87;1704302;82;25718;-57
2022/03/02 09:01:24;;;;;;;19.37;11.12;;;;;;;1.95;79.26;101552.89;1704404;84;27484;-57
2022/03/02 09:03:53;;;;;;;20.60;11.15;;;;;;;1.96;79.24;101557.27;1704587;84;25744;-58
2022/03/02 09:06:21;;;;;;;19.85;10.88;;;;;;;1.98;79.13;101555.40;1705304;84;25726;-57
2022/03/02 09:08:49;;;;;;;23.22;11.25;;;;;;;1.97;78.47;101555.47;1704765;84;26142;-57
2022/03/02 09:11:16;;;;;;;19.85;11.05;;;;;;;1.94;78.91;101547.62;1705070;84;25837;-57
2022/03/02 09:13:43;;;;;;;20.48;11.35;;;;;;;1.96;78.55;101545.78;1689255;84;27493;-56
2022/03/02 09:16:10;;;;;;;19.90;11.03;;;;;;;1.99;78.53;101541.69;1676730;83;25737;-56
2022/03/02 09:18:37;;;;;;;22.48;11.08;;;;;;;1.98;78.60;101546.59;1676597;85;25773;-56
2022/03/02 09:21:06;;;;;;;20.25;10.80;;;;;;;2.01;78.74;101541.17;1676196;85;26192;-57
2022/03/02 09:23:42;;;;;;;19.15;11.25;;;;;;;2.02;78.65;101542.42;1676710;85;25826;-57
2022/03/02 09:26:12;;;;;;;20.52;10.72;;;;;;;2.01;78.71;101543.34;1675443;85;27548;-57
2022/03/02 09:28:43;;;;;;;21.27;10.35;;;;;;;2.03;78.56;101540.62;1676234;85;25558;-57
2022/03/02 09:31:14;;;;;;;21.75;11.03;;;;;;;2.11;78.32;101534.53;1703133;82;26667;-57
2022/03/02 09:33:42;;;;;;;18.98;10.60;;;;;;;2.16;78.40;101529.03;1706327;83;26096;-57
2022/03/02 09:36:11;;;;;;;17.77;9.85;;;;;;;2.24;78.44;101536.69;1692156;82;25787;-57
2022/03/02 09:38:40;;;;;;;19.92;10.23;;;;;;;2.34;78.21;101526.09;1728428;81;28154;-58
2022/03/02 09:41:12;;;;;;;19.55;10.95;;;;;;;2.38;77.66;101528.16;1720075;81;25762;-57
2022/03/02 09:43:43;;;;;;;16.32;9.30;;;;;;;2.35;77.68;101530.48;1717293;82;25742;-58
2022/03/02 09:46:11;;;;;;;18.87;9.78;;;;;;;2.37;77.62;101529.08;1686128;83;26119;-57
2022/03/02 09:48:50;;;;;;;18.07;10.40;;;;;;;2.41;77.53;101517.41;1661546;85;25818;-56
2022/03/02 09:51:23;;;;;;;18.60;10.78;;;;;;;2.43;77.78;101515.53;1715500;82;27555;-57
2022/03/02 09:53:55;;;;;;;17.85;10.43;;;;;;;2.49;77.47;101520.60;1693313;82;25835;-57
2022/03/02 09:56:23;;;;;;;27.10;15.15;;;;;;;2.53;77.37;101514.22;1710442;81;25468;-57
2022/03/02 09:58:53;;;;;;;53.23;24.85;;;;;;;2.57;76.81;101510.52;1720217;81;26122;-57
2022/03/02 10:01:26;;;;;;;16.40;9.53;;;;;;;2.61;76.25;101509.44;1702339;82;25765;-57
2022/03/02 10:03:54;;;;;;;17.80;10.35;;;;;;;2.61;76.57;101505.45;1690456;82;28344;-57
2022/03/02 10:06:22;;;;;;;20.60;10.58;;;;;;;2.61;76.37;101508.10;1715047;82;25754;-57
2022/03/02 10:08:54;;;;;;;18.25;10.25;;;;;;;2.67;76.45;101508.30;1715364;82;25770;-57
2022/03/02 10:11:24;;;;;;;16.17;9.18;;;;;;;2.63;76.21;101494.78;1734789;81;25815;-57
2022/03/02 10:13:55;;;;;;;14.73;8.50;;;;;;;2.58;76.08;101498.08;1734799;81;25849;-56
2022/03/02 10:16:28;;;;;;;17.55;8.75;;;;;;;2.52;76.42;101492.56;1710998;82;27488;-57
2022/03/02 10:19:01;;;;;;;19.37;10.23;;;;;;;2.52;76.24;101494.37;1719140;82;25896;-57
2022/03/02 10:21:36;;;;;;;16.57;9.83;;;;;;;2.41;76.43;101481.08;1720361;82;25491;-56
2022/03/02 10:24:05;;;;;;;15.32;8.90;;;;;;;2.53;76.60;101477.03;1713379;81;26118;-56
2022/03/02 10:26:39;;;;;;;16.05;9.60;;;;;;;2.57;76.30;101468.02;1707099;82;25770;-56
2022/03/02 10:29:29;;;;;;;;;;;;;;;2.56;76.51;101463.63;1707478;84;27416;-57
2022/03/02 10:32:11;;;;;;;14.68;8.38;;;;;;;2.49;76.49;101460.36;1704194;84;25807;-56
2022/03/02 10:34:50;;;;;;;14.30;9.08;;;;;;;2.43;76.53;101459.31;1712108;82;25764;-57
2022/03/02 10:37:39;;;;;;;16.10;8.95;;;;;;;2.32;76.72;101460.23;1711535;82;26101;-57
2022/03/02 10:40:17;;;;;;;14.00;9.03;;;;;;;2.24;76.62;101445.10;1705038;83;25956;-56
2022/03/02 10:42:56;;;;;;;14.85;8.60;;;;;;;2.16;76.85;101456.92;1705309;83;27549;-57
2022/03/02 10:45:44;;;;;;;15.68;9.00;;;;;;;2.17;76.83;101440.06;1690794;83;25753;-57
2022/03/02 10:48:42;;;;;;;16.57;8.93;;;;;;;2.20;76.95;101444.38;1709082;82;25795;-58
2022/03/02 10:51:11;;;;;;;15.65;9.68;;;;;;;2.21;76.83;101439.91;1731201;81;27254;-57
2022/03/02 10:53:40;;;;;;;12.37;7.15;;;;;;;2.16;76.68;101433.03;1711321;82;25922;-57
2022/03/02 10:56:08;;;;;;;17.67;9.65;;;;;;;2.15;76.72;101428.64;1692675;82;27460;-57
2022/03/02 10:58:39;;;;;;;19.42;9.85;;;;;;;2.12;76.75;101434.55;1692613;84;25804;-57
2022/03/02 11:01:06;;;;;;;18.10;9.08;;;;;;;2.06;76.73;101429.52;1660157;85;25881;-57
2022/03/02 11:03:38;;;;;;;17.57;8.85;;;;;;;2.09;76.90;101432.02;1693447;82;26468;-57
2022/03/02 11:06:06;;;;;;;13.65;8.35;;;;;;;2.05;76.89;101428.62;1660024;85;25769;-57
2022/03/02 11:08:37;;;;;;;16.65;9.58;;;;;;;2.07;76.89;101423.25;1635188;85;28348;-58
2022/03/02 11:11:10;;;;;;;15.30;9.30;;;;;;;2.05;76.91;101418.02;1692954;83;25738;-57
2022/03/02 11:13:38;;;;;;;12.58;7.97;;;;;;;2.05;76.90;101418.02;1689922;84;25706;-57
2022/03/02 11:16:06;;;;;;;15.60;9.75;;;;;;;2.05;76.90;101410.05;1690666;83;26084;-57
2022/03/02 11:18:48;;;;;;;16.02;8.60;;;;;;;2.06;76.89;101416.23;1654495;85;25845;-58
2022/03/02 11:21:17;;;;;;;13.60;7.25;;;;;;;2.11;76.90;101409.78;1691528;84;27616;-57
2022/03/02 11:23:50;;;;;;;14.35;8.25;;;;;;;2.13;76.86;101406.60;1693629;82;25719;-58
2022/03/02 11:26:26;;;;;;;13.43;7.92;;;;;;;2.12;76.55;101410.66;1692109;84;25634;-57
2022/03/02 11:28:56;;;;;;;15.35;8.63;;;;;;;2.10;76.54;101404.55;1693491;82;26159;-58
2022/03/02 11:31:34;;;;;;;13.40;8.35;;;;;;;2.11;76.68;101402.30;1690341;83;26081;-57
2022/03/02 11:34:15;;;;;;;14.03;8.40;;;;;;;2.13;76.74;101394.66;1688500;84;27722;-57